BCS5GA EBBR-BKPR
Flight info
| Callsign | BCS5GA |
|---|---|
| Flight time | N/A |
| Altitude | 35000 |
| Route | SOPOK Y863 OGLOR DCT EMGOD L607 ULNOK DCT VIBOM DCT NOMBO DCT RIDAR DCT RADIZ DCT MONID DCT ETOBI DCT IDASI DCT RETRA DCT RINAV DCT ARBER ARBER1D |
| Aircraft | A306/H-SDE3FGHIRWY/LB1 |
Departure
| Time | 2026-05-03 22:00 |
|---|---|
| Airport | Brussels Airport (EBBR) |
Arrival
| Time | N/A |
|---|---|
| Airport | Priština Adem Jashari International Airport (BKPR) |
| Time | Latitude | Longitude | Altitude | Speed | Heading |
|---|---|---|---|---|---|
| 2026-05-03 21:35 | 50.90234 | 4.45589 | 146 ft | 0 kts | 335° |
| 2026-05-03 21:44 | 50.90225 | 4.45595 | 146 ft | 4 kts | 336° |
| 2026-05-03 21:44 | 50.90200 | 4.45611 | 146 ft | 4 kts | 342° |
| 2026-05-03 21:45 | 50.90175 | 4.45622 | 146 ft | 4 kts | 351° |
| 2026-05-03 21:45 | 50.90148 | 4.45624 | 146 ft | 4 kts | 17° |
| 2026-05-03 21:45 | 50.90133 | 4.45609 | 146 ft | 3 kts | 66° |
| 2026-05-03 21:45 | 50.90141 | 4.45635 | 146 ft | 4 kts | 66° |
| 2026-05-03 21:46 | 50.90152 | 4.45674 | 146 ft | 4 kts | 66° |
| 2026-05-03 21:46 | 50.90163 | 4.45713 | 146 ft | 4 kts | 66° |
| 2026-05-03 21:46 | 50.90172 | 4.45743 | 145 ft | 2 kts | 65° |
| 2026-05-03 21:50 | 50.90173 | 4.45746 | 145 ft | 2 kts | 65° |
| 2026-05-03 21:50 | 50.90184 | 4.45787 | 145 ft | 4 kts | 65° |
| 2026-05-03 21:51 | 50.90197 | 4.45831 | 145 ft | 4 kts | 65° |
| 2026-05-03 21:51 | 50.90209 | 4.45873 | 144 ft | 4 kts | 65° |
| 2026-05-03 21:51 | 50.90221 | 4.45915 | 144 ft | 4 kts | 66° |
| 2026-05-03 21:51 | 50.90239 | 4.45976 | 143 ft | 7 kts | 65° |
| 2026-05-03 21:52 | 50.90262 | 4.46055 | 142 ft | 12 kts | 65° |
| 2026-05-03 21:52 | 50.90303 | 4.46197 | 140 ft | 15 kts | 65° |
| 2026-05-03 21:52 | 50.90344 | 4.46343 | 139 ft | 14 kts | 67° |
| 2026-05-03 21:52 | 50.90357 | 4.46494 | 137 ft | 14 kts | 99° |
| 2026-05-03 21:53 | 50.90321 | 4.46631 | 136 ft | 13 kts | 116° |
| 2026-05-03 21:53 | 50.90280 | 4.46760 | 130 ft | 13 kts | 116° |
| 2026-05-03 21:53 | 50.90236 | 4.46902 | 134 ft | 17 kts | 116° |
| 2026-05-03 21:53 | 50.90174 | 4.47103 | 126 ft | 21 kts | 110° |
| 2026-05-03 21:54 | 50.90215 | 4.47312 | 125 ft | 20 kts | 65° |
| 2026-05-03 21:54 | 50.90274 | 4.47514 | 124 ft | 20 kts | 64° |
| 2026-05-03 21:54 | 50.90328 | 4.47705 | 123 ft | 18 kts | 65° |
| 2026-05-03 21:54 | 50.90379 | 4.47880 | 124 ft | 17 kts | 65° |
| 2026-05-03 21:55 | 50.90425 | 4.48039 | 122 ft | 15 kts | 65° |
| 2026-05-03 21:55 | 50.90468 | 4.48183 | 123 ft | 14 kts | 66° |
| 2026-05-03 21:55 | 50.90505 | 4.48312 | 123 ft | 12 kts | 66° |
| 2026-05-03 21:55 | 50.90537 | 4.48428 | 123 ft | 11 kts | 66° |
| 2026-05-03 21:56 | 50.90568 | 4.48532 | 122 ft | 10 kts | 65° |
| 2026-05-03 21:56 | 50.90601 | 4.48650 | 121 ft | 15 kts | 65° |
| 2026-05-03 21:56 | 50.90643 | 4.48796 | 124 ft | 14 kts | 65° |
| 2026-05-03 21:56 | 50.90682 | 4.48930 | 124 ft | 12 kts | 65° |
| 2026-05-03 21:57 | 50.90723 | 4.49076 | 124 ft | 18 kts | 66° |
| 2026-05-03 21:57 | 50.90781 | 4.49274 | 124 ft | 20 kts | 65° |
| 2026-05-03 21:57 | 50.90834 | 4.49459 | 126 ft | 17 kts | 66° |
| 2026-05-03 21:57 | 50.90882 | 4.49625 | 128 ft | 16 kts | 65° |
| 2026-05-03 21:58 | 50.90928 | 4.49778 | 125 ft | 14 kts | 60° |
| 2026-05-03 21:58 | 50.90999 | 4.49885 | 122 ft | 15 kts | 39° |
| 2026-05-03 21:58 | 50.91073 | 4.49993 | 120 ft | 14 kts | 61° |
| 2026-05-03 21:58 | 50.91038 | 4.50088 | 124 ft | 10 kts | 169° |
| 2026-05-03 21:59 | 50.90976 | 4.50071 | 124 ft | 9 kts | 194° |
| 2026-05-03 21:59 | 50.90722 | 4.49969 | 124 ft | 72 kts | 194° |
| 2026-05-03 21:59 | 50.90069 | 4.49700 | 138 ft | 128 kts | 194° |
| 2026-05-03 21:59 | 50.89032 | 4.49286 | 261 ft | 173 kts | 195° |
| 2026-05-03 22:00 | 50.87896 | 4.48786 | 594 ft | 163 kts | 196° |
| 2026-05-03 22:00 | 50.86769 | 4.48242 | 1013 ft | 177 kts | 199° |
| 2026-05-03 22:00 | 50.85511 | 4.47807 | 1760 ft | 194 kts | 180° |
| 2026-05-03 22:00 | 50.84299 | 4.48716 | 2651 ft | 204 kts | 137° |
| 2026-05-03 22:01 | 50.83421 | 4.50637 | 3102 ft | 228 kts | 126° |
| 2026-05-03 22:01 | 50.82444 | 4.52774 | 3427 ft | 250 kts | 131° |
| 2026-05-03 22:01 | 50.81258 | 4.54896 | 4016 ft | 261 kts | 136° |
| 2026-05-03 22:01 | 50.79967 | 4.56941 | 4886 ft | 264 kts | 139° |
| 2026-05-03 22:02 | 50.78621 | 4.58946 | 5761 ft | 267 kts | 141° |
| 2026-05-03 22:02 | 50.77241 | 4.60924 | 6658 ft | 269 kts | 141° |
| 2026-05-03 22:02 | 50.75832 | 4.62898 | 7511 ft | 273 kts | 142° |
| 2026-05-03 22:02 | 50.74409 | 4.64853 | 8362 ft | 276 kts | 142° |
| 2026-05-03 22:03 | 50.72943 | 4.66839 | 9228 ft | 280 kts | 142° |
| 2026-05-03 22:03 | 50.71451 | 4.68860 | 10047 ft | 284 kts | 141° |
| 2026-05-03 22:03 | 50.70100 | 4.71255 | 10501 ft | 306 kts | 124° |
| 2026-05-03 22:03 | 50.69246 | 4.74463 | 10804 ft | 328 kts | 110° |
| 2026-05-03 22:04 | 50.68596 | 4.78025 | 11092 ft | 346 kts | 108° |
| 2026-05-03 22:04 | 50.67939 | 4.81774 | 11370 ft | 363 kts | 108° |
| 2026-05-03 22:04 | 50.67241 | 4.85689 | 11638 ft | 378 kts | 108° |
| 2026-05-03 22:04 | 50.66509 | 4.89729 | 11991 ft | 389 kts | 108° |
| 2026-05-03 22:05 | 50.65713 | 4.93851 | 12481 ft | 394 kts | 110° |
| 2026-05-03 22:05 | 50.64886 | 4.97929 | 13029 ft | 399 kts | 110° |
| 2026-05-03 22:05 | 50.64029 | 5.02110 | 13597 ft | 402 kts | 110° |
| 2026-05-03 22:05 | 50.63163 | 5.06321 | 14139 ft | 406 kts | 110° |
| 2026-05-03 22:06 | 50.62286 | 5.10574 | 14663 ft | 409 kts | 110° |
| 2026-05-03 22:06 | 50.61580 | 5.14952 | 15140 ft | 417 kts | 98° |
| 2026-05-03 22:06 | 50.61780 | 5.19544 | 15663 ft | 425 kts | 78° |
| 2026-05-03 22:06 | 50.62915 | 5.23873 | 16226 ft | 430 kts | 61° |
| 2026-05-03 22:07 | 50.64302 | 5.28054 | 16729 ft | 433 kts | 70° |
| 2026-05-03 22:07 | 50.64878 | 5.32689 | 17248 ft | 432 kts | 90° |
| 2026-05-03 22:07 | 50.64506 | 5.37351 | 17755 ft | 429 kts | 109° |
| 2026-05-03 22:07 | 50.63256 | 5.41511 | 18242 ft | 424 kts | 128° |
| 2026-05-03 22:08 | 50.61240 | 5.44844 | 18668 ft | 419 kts | 146° |
| 2026-05-03 22:08 | 50.58690 | 5.46963 | 19085 ft | 414 kts | 165° |
| 2026-05-03 22:08 | 50.55874 | 5.47685 | 19513 ft | 409 kts | 181° |
| 2026-05-03 22:08 | 50.53021 | 5.47732 | 19939 ft | 411 kts | 181° |
| 2026-05-03 22:09 | 50.50149 | 5.47910 | 20359 ft | 413 kts | 181° |
| 2026-05-03 22:09 | 50.47275 | 5.47892 | 20766 ft | 414 kts | 185° |
| 2026-05-03 22:09 | 50.44379 | 5.48166 | 21150 ft | 422 kts | 171° |
| 2026-05-03 22:10 | 50.39277 | 5.52865 | 21955 ft | 443 kts | 136° |
| 2026-05-03 22:10 | 50.37539 | 5.56828 | 22304 ft | 452 kts | 123° |
| 2026-05-03 22:10 | 50.35909 | 5.61048 | 22631 ft | 452 kts | 129° |
| 2026-05-03 22:10 | 50.33958 | 5.64898 | 22993 ft | 450 kts | 135° |
| 2026-05-03 22:11 | 50.31772 | 5.68433 | 23339 ft | 450 kts | 140° |
| 2026-05-03 22:11 | 50.29491 | 5.71704 | 23654 ft | 451 kts | 142° |
| 2026-05-03 22:11 | 50.27271 | 5.75225 | 23898 ft | 458 kts | 135° |
| 2026-05-03 22:11 | 50.25427 | 5.79341 | 24148 ft | 467 kts | 124° |
| 2026-05-03 22:12 | 50.24111 | 5.84034 | 24408 ft | 476 kts | 113° |
| 2026-05-03 22:12 | 50.23134 | 5.89007 | 24677 ft | 479 kts | 110° |
| 2026-05-03 22:12 | 50.22278 | 5.94053 | 24918 ft | 482 kts | 108° |
| 2026-05-03 22:12 | 50.21464 | 5.99154 | 25130 ft | 485 kts | 108° |
| 2026-05-03 22:13 | 50.20653 | 6.04274 | 25363 ft | 487 kts | 108° |
| 2026-05-03 22:13 | 50.19823 | 6.09416 | 25592 ft | 488 kts | 108° |
| 2026-05-03 22:13 | 50.19027 | 6.14581 | 25818 ft | 492 kts | 105° |
| 2026-05-03 22:13 | 50.18594 | 6.19849 | 26029 ft | 498 kts | 97° |
| 2026-05-03 22:14 | 50.18623 | 6.25293 | 26244 ft | 503 kts | 90° |
| 2026-05-03 22:14 | 50.18852 | 6.30770 | 26448 ft | 506 kts | 88° |
| 2026-05-03 22:14 | 50.19169 | 6.36247 | 26656 ft | 508 kts | 87° |
| 2026-05-03 22:14 | 50.19528 | 6.41753 | 26861 ft | 510 kts | 87° |
| 2026-05-03 22:15 | 50.19896 | 6.47254 | 27112 ft | 510 kts | 86° |
| 2026-05-03 22:15 | 50.20258 | 6.52759 | 27418 ft | 509 kts | 86° |
| 2026-05-03 22:15 | 50.20608 | 6.58255 | 27709 ft | 509 kts | 87° |
| 2026-05-03 22:15 | 50.20872 | 6.63769 | 27987 ft | 507 kts | 91° |
| 2026-05-03 22:16 | 50.20879 | 6.69263 | 28291 ft | 506 kts | 93° |
| 2026-05-03 22:16 | 50.20827 | 6.74756 | 28579 ft | 506 kts | 94° |
| 2026-05-03 22:16 | 50.20741 | 6.80259 | 28878 ft | 505 kts | 94° |
| 2026-05-03 22:16 | 50.20637 | 6.85665 | 29177 ft | 505 kts | 95° |
| 2026-05-03 22:17 | 50.20525 | 6.91138 | 29440 ft | 504 kts | 94° |
| 2026-05-03 22:17 | 50.20412 | 6.96606 | 29811 ft | 502 kts | 94° |
| 2026-05-03 22:17 | 50.20300 | 7.02065 | 30123 ft | 502 kts | 94° |
| 2026-05-03 22:17 | 50.20187 | 7.07519 | 30379 ft | 501 kts | 94° |
| 2026-05-03 22:18 | 50.20074 | 7.12954 | 30676 ft | 500 kts | 94° |
| 2026-05-03 22:18 | 50.19962 | 7.18375 | 30954 ft | 499 kts | 95° |
| 2026-05-03 22:18 | 50.19845 | 7.23818 | 31073 ft | 502 kts | 95° |
| 2026-05-03 22:18 | 50.19678 | 7.29269 | 31337 ft | 500 kts | 99° |
| 2026-05-03 22:19 | 50.19109 | 7.34572 | 31712 ft | 492 kts | 108° |
| 2026-05-03 22:19 | 50.18210 | 7.39619 | 32134 ft | 486 kts | 110° |
| 2026-05-03 22:19 | 50.17223 | 7.44627 | 32552 ft | 481 kts | 111° |
| 2026-05-03 22:19 | 50.16186 | 7.49593 | 32894 ft | 479 kts | 112° |
| 2026-05-03 22:20 | 50.15129 | 7.54523 | 33171 ft | 478 kts | 112° |
| 2026-05-03 22:20 | 50.14068 | 7.59424 | 33482 ft | 476 kts | 112° |
| 2026-05-03 22:20 | 50.13010 | 7.64310 | 33798 ft | 475 kts | 112° |
| 2026-05-03 22:20 | 50.11971 | 7.69118 | 34092 ft | 473 kts | 112° |
| 2026-05-03 22:21 | 50.10925 | 7.73977 | 34327 ft | 473 kts | 112° |
| 2026-05-03 22:21 | 50.09880 | 7.78831 | 34526 ft | 473 kts | 112° |
| 2026-05-03 22:21 | 50.08830 | 7.83707 | 34678 ft | 474 kts | 112° |
| 2026-05-03 22:21 | 50.07696 | 7.88524 | 34841 ft | 472 kts | 118° |
| 2026-05-03 22:22 | 50.06182 | 7.93023 | 34982 ft | 467 kts | 125° |
| 2026-05-03 22:22 | 50.02679 | 8.01540 | 34993 ft | 465 kts | 128° |
| 2026-05-03 22:23 | 50.02095 | 8.02890 | 35008 ft | 465 kts | 128° |